Time;durP1;ratioP1;P1;durP2;ratioP2;P2;SDS_P1;SDS_P2;PMS_P1;PMS_P2;Temp;Humidity;BMP_temperature;BMP_pressure;BME280_temperature;BME280_humidity;BME280_pressure;Samples;Min_cycle;Max_cycle;Signal;HPM_P1;HPM_P2
2023/12/19 00:01:25;;;;;;;0.10;0.10;;;;;;;;;;4992106;28;20133;-88
2023/12/19 00:03:52;;;;;;;0.10;0.10;;;;;;;;;;4976172;28;20042;-88
2023/12/19 00:06:18;;;;;;;0.10;0.10;;;;;;;;;;4976393;28;20097;-88
2023/12/19 00:08:44;;;;;;;0.30;0.30;;;;;;;;;;4976218;28;20042;-88
2023/12/19 00:11:10;;;;;;;0.30;0.30;;;;;;;;;;4976058;28;20442;-88
2023/12/19 00:13:36;;;;;;;0.40;0.40;;;;;;;;;;4976065;28;20046;-88
2023/12/19 00:16:03;;;;;;;0.10;0.10;;;;;;;;;;4976217;28;20042;-88
2023/12/19 00:18:30;;;;;;;0.25;0.25;;;;;;;;;;4976215;28;20092;-88
2023/12/19 00:20:56;;;;;;;0.32;0.32;;;;;;;;;;4976061;28;20056;-88
2023/12/19 00:23:22;;;;;;;0.35;0.35;;;;;;;;;;4975976;28;20045;-88
2023/12/19 00:25:48;;;;;;;0.20;0.20;;;;;;;;;;4976102;28;20038;-88
2023/12/19 00:28:14;;;;;;;0.60;0.60;;;;;;;;;;4975991;28;20076;-89
2023/12/19 00:30:40;;;;;;;0.20;0.20;;;;;;;;;;4975708;28;20046;-88
2023/12/19 00:33:06;;;;;;;0.13;0.13;;;;;;;;;;4975704;28;20408;-88
2023/12/19 00:35:33;;;;;;;0.50;0.50;;;;;;;;;;4975884;28;20042;-87
2023/12/19 00:37:59;;;;;;;0.10;0.10;;;;;;;;;;4975722;28;20134;-88
2023/12/19 00:40:25;;;;;;;0.55;0.40;;;;;;;;;;4974603;28;20290;-88
2023/12/19 00:42:51;;;;;;;0.15;0.15;;;;;;;;;;4975951;28;20088;-88
2023/12/19 00:45:17;;;;;;;0.10;0.10;;;;;;;;;;4975579;28;20045;-88
2023/12/19 00:47:43;;;;;;;0.22;0.22;;;;;;;;;;4975467;28;20524;-88
2023/12/19 00:50:09;;;;;;;0.40;0.20;;;;;;;;;;5008176;28;20065;-87
2023/12/19 00:52:35;;;;;;;0.20;0.20;;;;;;;;;;4975947;28;20046;-88
2023/12/19 00:55:02;;;;;;;0.10;0.10;;;;;;;;;;4991755;28;20049;-88
2023/12/19 00:57:28;;;;;;;0.10;0.10;;;;;;;;;;4975562;28;20050;-88
2023/12/19 00:59:54;;;;;;;0.10;0.10;;;;;;;;;;4977025;28;20046;-88
2023/12/19 01:02:20;;;;;;;0.75;0.75;;;;;;;;;;4994830;28;20100;-87
2023/12/19 01:04:46;;;;;;;0.98;0.20;;;;;;;;;;5011346;28;20108;-88
2023/12/19 01:07:12;;;;;;;0.10;0.10;;;;;;;;;;4994988;28;20045;-88
2023/12/19 01:09:38;;;;;;;0.10;0.10;;;;;;;;;;4994623;28;20482;-88
2023/12/19 01:12:04;;;;;;;0.20;0.20;;;;;;;;;;5011466;28;20096;-88
2023/12/19 01:14:30;;;;;;;0.20;0.20;;;;;;;;;;5010934;28;20048;-88
2023/12/19 01:16:56;;;;;;;0.10;0.10;;;;;;;;;;4994610;28;20072;-86
2023/12/19 01:19:22;;;;;;;0.30;0.30;;;;;;;;;;5011009;28;20069;-88
2023/12/19 01:21:48;;;;;;;0.30;0.30;;;;;;;;;;5010811;28;20038;-88
2023/12/19 01:24:14;;;;;;;0.10;0.10;;;;;;;;;;5010946;28;20125;-87
2023/12/19 01:26:40;;;;;;;0.10;0.10;;;;;;;;;;5010940;28;20042;-87
2023/12/19 01:29:06;;;;;;;0.43;0.43;;;;;;;;;;4994918;28;20069;-88
2023/12/19 01:31:32;;;;;;;0.20;0.20;;;;;;;;;;4994428;28;20409;-88
2023/12/19 01:33:58;;;;;;;0.20;0.20;;;;;;;;;;5010881;28;20038;-88
2023/12/19 01:36:25;;;;;;;0.20;0.20;;;;;;;;;;5010819;28;20103;-87
2023/12/19 01:38:52;;;;;;;0.30;0.30;;;;;;;;;;4994521;28;20136;-88
2023/12/19 01:41:23;;;;;;;0.52;0.52;;;;;;;;;;4994287;28;20084;-88
2023/12/19 01:43:49;;;;;;;0.10;0.10;;;;;;;;;;4994362;28;20481;-87
2023/12/19 01:46:17;;;;;;;0.43;0.30;;;;;;;;;;5010786;28;20042;-88
2023/12/19 01:48:44;;;;;;;0.10;0.10;;;;;;;;;;5010754;28;20042;-87
2023/12/19 01:51:11;;;;;;;0.30;0.30;;;;;;;;;;4994450;28;20048;-88
2023/12/19 01:53:37;;;;;;;0.43;0.43;;;;;;;;;;4998477;28;20041;-88
2023/12/19 01:56:03;;;;;;;0.20;0.20;;;;;;;;;;4998038;28;20049;-86
2023/12/19 01:58:30;;;;;;;0.30;0.22;;;;;;;;;;4998169;28;20394;-87
2023/12/19 02:00:56;;;;;;;0.30;0.30;;;;;;;;;;4997750;28;20449;-88
2023/12/19 02:03:22;;;;;;;0.10;0.10;;;;;;;;;;4998242;28;20052;-86
2023/12/19 02:05:51;;;;;;;0.28;0.28;;;;;;;;;;4997893;28;20124;-88
2023/12/19 02:08:17;;;;;;;0.10;0.10;;;;;;;;;;4997878;28;20033;-88
2023/12/19 02:10:43;;;;;;;0.10;0.10;;;;;;;;;;5014119;28;20133;-87
2023/12/19 02:13:09;;;;;;;0.20;0.20;;;;;;;;;;5014264;28;20189;-87
2023/12/19 02:15:35;;;;;;;0.10;0.10;;;;;;;;;;5014232;28;20538;-88
2023/12/19 02:18:17;;;;;;;1.23;0.47;;;;;;;;;;5014072;28;20052;-88
2023/12/19 02:20:43;;;;;;;0.20;0.20;;;;;;;;;;4997491;28;20038;-88
2023/12/19 02:23:11;;;;;;;0.10;0.10;;;;;;;;;;5014101;28;20041;-88
2023/12/19 02:25:37;;;;;;;0.10;0.10;;;;;;;;;;4997470;28;20125;-87
2023/12/19 02:28:03;;;;;;;0.10;0.10;;;;;;;;;;5013670;28;20038;-87
2023/12/19 02:30:29;;;;;;;0.30;0.25;;;;;;;;;;5013947;28;20528;-88
2023/12/19 02:32:57;;;;;;;0.32;0.20;;;;;;;;;;4997450;28;20401;-87
2023/12/19 02:35:24;;;;;;;0.20;0.20;;;;;;;;;;4997264;28;20105;-88
2023/12/19 02:37:49;;;;;;;0.10;0.10;;;;;;;;;;5013599;28;20176;-87
2023/12/19 02:40:16;;;;;;;0.10;0.10;;;;;;;;;;4997305;28;20204;-87
2023/12/19 02:42:42;;;;;;;0.10;0.10;;;;;;;;;;5013913;28;20161;-88
2023/12/19 02:45:09;;;;;;;0.40;0.40;;;;;;;;;;5013812;28;20041;-88
2023/12/19 02:47:35;;;;;;;0.20;0.20;;;;;;;;;;4997139;28;20046;-87
2023/12/19 02:50:01;;;;;;;0.10;0.10;;;;;;;;;;5013444;28;20449;-87
2023/12/19 02:52:27;;;;;;;0.10;0.10;;;;;;;;;;5013263;28;20133;-87
2023/12/19 02:54:53;;;;;;;0.10;0.10;;;;;;;;;;4996825;28;20129;-87
2023/12/19 02:57:19;;;;;;;0.10;0.10;;;;;;;;;;5013067;28;20048;-87
2023/12/19 02:59:45;;;;;;;0.63;0.63;;;;;;;;;;5012672;28;20042;-86
2023/12/19 03:02:11;;;;;;;0.10;0.10;;;;;;;;;;5013268;28;20114;-87
2023/12/19 03:04:40;;;;;;;0.20;0.20;;;;;;;;;;5011974;28;20044;-87
2023/12/19 03:07:06;;;;;;;0.10;0.10;;;;;;;;;;4996393;28;20046;-85
2023/12/19 03:09:32;;;;;;;0.20;0.20;;;;;;;;;;5012873;28;20088;-88
2023/12/19 03:12:08;;;;;;;0.10;0.10;;;;;;;;;;5012946;28;20081;-87
2023/12/19 03:14:34;;;;;;;0.10;0.10;;;;;;;;;;4996665;28;20397;-88
2023/12/19 03:17:00;;;;;;;0.10;0.10;;;;;;;;;;5012908;28;20042;-88
2023/12/19 03:19:27;;;;;;;0.10;0.10;;;;;;;;;;5012864;28;20046;-87
2023/12/19 03:21:53;;;;;;;0.10;0.10;;;;;;;;;;4996372;28;20050;-88
2023/12/19 03:24:19;;;;;;;0.10;0.10;;;;;;;;;;4996570;28;20363;-88
2023/12/19 03:26:45;;;;;;;0.10;0.10;;;;;;;;;;5012768;28;20049;-88
2023/12/19 03:29:11;;;;;;;0.10;0.10;;;;;;;;;;5012854;28;20035;-86
2023/12/19 03:31:37;;;;;;;0.10;0.10;;;;;;;;;;5012580;28;20046;-87
2023/12/19 03:34:03;;;;;;;0.10;0.10;;;;;;;;;;5012554;28;20401;-87
2023/12/19 03:36:29;;;;;;;0.10;0.10;;;;;;;;;;4996155;28;20843;-88
2023/12/19 03:38:55;;;;;;;0.60;0.20;;;;;;;;;;4996517;28;20053;-87
2023/12/19 03:41:21;;;;;;;0.20;0.20;;;;;;;;;;5012545;28;20041;-87
2023/12/19 03:43:47;;;;;;;0.10;0.10;;;;;;;;;;5012350;28;20549;-88
2023/12/19 03:46:14;;;;;;;0.10;0.10;;;;;;;;;;5012405;28;20041;-87
2023/12/19 03:48:41;;;;;;;0.20;0.20;;;;;;;;;;4996094;28;20069;-88
2023/12/19 03:51:07;;;;;;;0.10;0.10;;;;;;;;;;4995805;28;20051;-88
2023/12/19 03:53:33;;;;;;;0.10;0.10;;;;;;;;;;4995905;28;20136;-87
2023/12/19 03:55:59;;;;;;;0.10;0.10;;;;;;;;;;5012446;28;20037;-90
2023/12/19 03:58:25;;;;;;;0.10;0.10;;;;;;;;;;4996200;28;20045;-87
2023/12/19 04:00:51;;;;;;;0.10;0.10;;;;;;;;;;5011915;28;20417;-87
2023/12/19 04:03:17;;;;;;;0.10;0.10;;;;;;;;;;5011984;28;20100;-87
2023/12/19 04:05:43;;;;;;;0.10;0.10;;;;;;;;;;5012085;28;20038;-87
2023/12/19 04:08:09;;;;;;;0.20;0.20;;;;;;;;;;5011947;28;20168;-88
2023/12/19 04:10:36;;;;;;;0.30;0.30;;;;;;;;;;4995472;28;20128;-87
2023/12/19 04:13:02;;;;;;;0.10;0.10;;;;;;;;;;5011880;28;20046;-87
2023/12/19 04:15:30;;;;;;;0.30;0.30;;;;;;;;;;5012003;28;20087;-86
2023/12/19 04:17:56;;;;;;;0.10;0.10;;;;;;;;;;4995247;28;20462;-87
2023/12/19 04:20:22;;;;;;;0.10;0.10;;;;;;;;;;5011601;28;20081;-87
2023/12/19 04:22:48;;;;;;;0.28;0.28;;;;;;;;;;4995490;28;20052;-88
2023/12/19 04:25:14;;;;;;;0.20;0.20;;;;;;;;;;4995722;28;20046;-87
2023/12/19 04:27:40;;;;;;;0.10;0.10;;;;;;;;;;5011652;28;20438;-86
2023/12/19 04:30:06;;;;;;;0.10;0.10;;;;;;;;;;5011553;28;20063;-88
2023/12/19 04:32:32;;;;;;;0.20;0.20;;;;;;;;;;4995567;28;20041;-87
2023/12/19 04:34:58;;;;;;;0.20;0.20;;;;;;;;;;5011574;28;20076;-88
2023/12/19 04:37:24;;;;;;;0.10;0.10;;;;;;;;;;5011470;28;20125;-87
2023/12/19 04:39:50;;;;;;;0.20;0.20;;;;;;;;;;5011251;28;20095;-86
2023/12/19 04:42:19;;;;;;;0.10;0.10;;;;;;;;;;5011658;28;20497;-88
2023/12/19 04:44:46;;;;;;;0.20;0.20;;;;;;;;;;4995294;28;20107;-87
2023/12/19 04:47:12;;;;;;;0.10;0.10;;;;;;;;;;4994860;28;20042;-88
2023/12/19 04:49:41;;;;;;;0.17;0.17;;;;;;;;;;5011622;28;20037;-88
2023/12/19 04:52:07;;;;;;;0.10;0.10;;;;;;;;;;5011431;28;20409;-88
2023/12/19 04:54:33;;;;;;;0.13;0.13;;;;;;;;;;5011263;28;20072;-86
2023/12/19 04:56:59;;;;;;;0.10;0.10;;;;;;;;;;4995007;28;20046;-87
2023/12/19 04:59:25;;;;;;;0.10;0.10;;;;;;;;;;5011077;28;20084;-87
2023/12/19 05:01:51;;;;;;;0.10;0.10;;;;;;;;;;5010702;28;20085;-87
2023/12/19 05:04:17;;;;;;;0.55;0.55;;;;;;;;;;5011203;28;20081;-87
2023/12/19 05:06:43;;;;;;;0.10;0.10;;;;;;;;;;5011040;28;20033;-87
2023/12/19 05:09:09;;;;;;;0.10;0.10;;;;;;;;;;5011071;28;20033;-87
2023/12/19 05:11:35;;;;;;;0.10;0.10;;;;;;;;;;4994638;28;20456;-88
2023/12/19 05:14:02;;;;;;;0.10;0.10;;;;;;;;;;4994694;28;20489;-87
2023/12/19 05:16:28;;;;;;;0.10;0.10;;;;;;;;;;4994897;28;20054;-87
2023/12/19 05:18:54;;;;;;;0.10;0.10;;;;;;;;;;4994773;28;20041;-87
2023/12/19 05:21:21;;;;;;;0.10;0.10;;;;;;;;;;5011023;28;20042;-87
2023/12/19 05:23:47;;;;;;;0.10;0.10;;;;;;;;;;4995132;28;20053;-87
2023/12/19 05:26:13;;;;;;;0.10;0.10;;;;;;;;;;5011247;28;20046;-87
2023/12/19 05:28:39;;;;;;;0.10;0.10;;;;;;;;;;5015034;28;20096;-87
2023/12/19 05:31:06;;;;;;;0.10;0.10;;;;;;;;;;4998529;28;20052;-87
2023/12/19 05:33:33;;;;;;;0.20;0.20;;;;;;;;;;5015253;28;20057;-88
2023/12/19 05:35:59;;;;;;;0.10;0.10;;;;;;;;;;5014875;28;20064;-87
2023/12/19 05:38:25;;;;;;;0.10;0.10;;;;;;;;;;4998445;28;20041;-87
2023/12/19 05:40:56;;;;;;;0.10;0.10;;;;;;;;;;5014866;28;20038;-87
2023/12/19 05:43:22;;;;;;;0.10;0.10;;;;;;;;;;4998371;28;20128;-87
2023/12/19 05:45:48;;;;;;;0.10;0.10;;;;;;;;;;4998732;28;20120;-88
2023/12/19 05:48:14;;;;;;;0.10;0.10;;;;;;;;;;5014645;28;20038;-87
2023/12/19 05:50:40;;;;;;;0.10;0.10;;;;;;;;;;4998191;28;20045;-88
2023/12/19 05:53:06;;;;;;;0.20;0.20;;;;;;;;;;5014777;28;20370;-88
2023/12/19 05:55:32;;;;;;;0.10;0.10;;;;;;;;;;4998381;28;20390;-87
2023/12/19 05:57:58;;;;;;;0.10;0.10;;;;;;;;;;4997979;28;20046;-87
2023/12/19 06:00:24;;;;;;;0.20;0.20;;;;;;;;;;4997830;28;20050;-87
2023/12/19 06:02:50;;;;;;;0.20;0.20;;;;;;;;;;5014501;28;20090;-87
2023/12/19 06:05:17;;;;;;;0.10;0.10;;;;;;;;;;4997996;28;20042;-88
2023/12/19 06:07:43;;;;;;;0.20;0.20;;;;;;;;;;4997828;28;20137;-87
2023/12/19 06:10:13;;;;;;;0.10;0.10;;;;;;;;;;4998029;28;20497;-88
2023/12/19 06:12:39;;;;;;;0.10;0.10;;;;;;;;;;4997820;28;20038;-87
2023/12/19 06:15:11;;;;;;;0.40;0.40;;;;;;;;;;5014051;28;20050;-87
2023/12/19 06:17:41;;;;;;;0.10;0.10;;;;;;;;;;4997679;28;20168;-88
2023/12/19 06:20:15;;;;;;;0.10;0.10;;;;;;;;;;4997504;28;20045;-88
2023/12/19 06:22:44;;;;;;;0.10;0.10;;;;;;;;;;5013990;28;20038;-88
2023/12/19 06:25:10;;;;;;;0.10;0.10;;;;;;;;;;4997705;28;20454;-88
2023/12/19 06:27:36;;;;;;;0.13;0.13;;;;;;;;;;5013955;28;20088;-88
2023/12/19 06:30:05;;;;;;;0.10;0.10;;;;;;;;;;5013753;28;20084;-87
2023/12/19 06:32:31;;;;;;;0.10;0.10;;;;;;;;;;5013804;28;20049;-88
2023/12/19 06:34:57;;;;;;;0.10;0.10;;;;;;;;;;5014150;28;20034;-87
2023/12/19 06:37:23;;;;;;;0.20;0.20;;;;;;;;;;4997358;28;20524;-88
2023/12/19 06:39:49;;;;;;;0.10;0.10;;;;;;;;;;4997206;28;20037;-88
2023/12/19 06:42:15;;;;;;;0.10;0.10;;;;;;;;;;5013543;28;20072;-87
2023/12/19 06:44:42;;;;;;;0.30;0.30;;;;;;;;;;5013581;28;20041;-87
2023/12/19 06:47:07;;;;;;;0.57;0.45;;;;;;;;;;5013547;28;20042;-88
2023/12/19 06:49:33;;;;;;;0.10;0.10;;;;;;;;;;4997331;28;20048;-86
2023/12/19 06:52:00;;;;;;;0.10;0.10;;;;;;;;;;5013417;28;20544;-87
2023/12/19 06:54:25;;;;;;;0.10;0.10;;;;;;;;;;4997158;28;20050;-87
2023/12/19 06:56:52;;;;;;;0.10;0.10;;;;;;;;;;5013409;28;20068;-88
2023/12/19 06:59:18;;;;;;;0.10;0.10;;;;;;;;;;5013292;28;20046;-87
2023/12/19 07:01:44;;;;;;;0.10;0.10;;;;;;;;;;5013049;28;20136;-87
2023/12/19 07:04:10;;;;;;;0.10;0.10;;;;;;;;;;4997144;28;20129;-88
2023/12/19 07:06:36;;;;;;;0.35;0.35;;;;;;;;;;5013073;28;20505;-87
2023/12/19 07:09:02;;;;;;;0.10;0.10;;;;;;;;;;5013059;28;20110;-87
2023/12/19 07:11:28;;;;;;;0.10;0.10;;;;;;;;;;5013083;28;20046;-87
2023/12/19 07:13:54;;;;;;;0.10;0.10;;;;;;;;;;5013233;28;20088;-87
2023/12/19 07:16:21;;;;;;;0.10;0.10;;;;;;;;;;5012954;28;20043;-88
2023/12/19 07:18:47;;;;;;;0.10;0.10;;;;;;;;;;4996664;28;20367;-88
2023/12/19 07:21:21;;;;;;;0.10;0.10;;;;;;;;;;5012731;28;20046;-85
2023/12/19 07:23:47;;;;;;;0.10;0.10;;;;;;;;;;4996513;28;20084;-87
2023/12/19 07:26:29;;;;;;;0.10;0.10;;;;;;;;;;5012932;28;20038;-87
2023/12/19 07:28:57;;;;;;;0.10;0.10;;;;;;;;;;4996962;28;20034;-87
2023/12/19 07:31:31;;;;;;;0.10;0.10;;;;;;;;;;4996859;28;20419;-87
2023/12/19 07:33:57;;;;;;;0.10;0.10;;;;;;;;;;5012827;28;20103;-87
2023/12/19 07:36:24;;;;;;;0.10;0.10;;;;;;;;;;5012933;28;20076;-87
2023/12/19 07:38:50;;;;;;;0.10;0.10;;;;;;;;;;5012585;28;20068;-88
2023/12/19 07:41:16;;;;;;;0.10;0.10;;;;;;;;;;5012475;28;20046;-88
2023/12/19 07:43:42;;;;;;;0.25;0.20;;;;;;;;;;5012547;28;20042;-88
2023/12/19 07:46:08;;;;;;;0.10;0.10;;;;;;;;;;5012507;28;20047;-88
2023/12/19 07:48:34;;;;;;;0.10;0.10;;;;;;;;;;4996052;28;20177;-88
2023/12/19 07:51:02;;;;;;;0.10;0.10;;;;;;;;;;4995583;28;20152;-89
2023/12/19 07:53:28;;;;;;;0.10;0.10;;;;;;;;;;4996344;28;20045;-89
2023/12/19 07:55:54;;;;;;;0.10;0.10;;;;;;;;;;5012505;28;20049;-88
2023/12/19 07:58:20;;;;;;;0.10;0.10;;;;;;;;;;5010163;28;20442;-89
2023/12/19 08:00:48;;;;;;;0.10;0.10;;;;;;;;;;4975606;28;20058;-89
2023/12/19 08:03:15;;;;;;;0.10;0.10;;;;;;;;;;4976516;28;20049;-89
2023/12/19 08:05:47;;;;;;;0.10;0.10;;;;;;;;;;4995737;28;20124;-89
2023/12/19 08:08:13;;;;;;;0.10;0.10;;;;;;;;;;4978757;28;20330;-88
2023/12/19 08:10:39;;;;;;;0.10;0.10;;;;;;;;;;5011560;28;20129;-88
2023/12/19 08:13:05;;;;;;;0.10;0.10;;;;;;;;;;5012345;28;20603;-87
2023/12/19 08:15:31;;;;;;;0.10;0.10;;;;;;;;;;4995505;28;20381;-88
2023/12/19 08:17:57;;;;;;;0.10;0.10;;;;;;;;;;4995607;28;20048;-88
2023/12/19 08:20:23;;;;;;;0.10;0.10;;;;;;;;;;5011257;28;20042;-88
2023/12/19 08:22:49;;;;;;;0.20;0.20;;;;;;;;;;5011611;28;20064;-87
2023/12/19 08:25:15;;;;;;;0.10;0.10;;;;;;;;;;5011760;28;20472;-88
2023/12/19 08:27:41;;;;;;;0.10;0.10;;;;;;;;;;5011700;28;20120;-92
2023/12/19 08:30:07;;;;;;;0.20;0.20;;;;;;;;;;5011570;28;20037;-88
2023/12/19 08:32:33;;;;;;;0.10;0.10;;;;;;;;;;4995285;28;20038;-88
2023/12/19 08:34:59;;;;;;;0.10;0.10;;;;;;;;;;4995122;28;20037;-88
2023/12/19 08:37:26;;;;;;;0.10;0.10;;;;;;;;;;5011423;28;20042;-89
2023/12/19 08:39:56;;;;;;;0.10;0.10;;;;;;;;;;4994681;28;20042;-89
2023/12/19 08:42:22;;;;;;;0.20;0.20;;;;;;;;;;4995163;28;20077;-90
2023/12/19 08:44:50;;;;;;;0.10;0.10;;;;;;;;;;4983956;28;20173;-89
2023/12/19 08:47:16;;;;;;;0.10;0.10;;;;;;;;;;4991537;28;20050;-89
2023/12/19 08:49:46;;;;;;;0.10;0.10;;;;;;;;;;4972083;28;20146;-89
2023/12/19 08:52:12;;;;;;;0.10;0.10;;;;;;;;;;4940858;28;20125;-89
2023/12/19 08:54:38;;;;;;;0.10;0.10;;;;;;;;;;4948856;28;20043;-89
2023/12/19 08:57:07;;;;;;;0.10;0.10;;;;;;;;;;4975350;28;20410;-89
2023/12/19 08:59:33;;;;;;;0.38;0.38;;;;;;;;;;4972070;28;20043;-89
2023/12/19 09:01:59;;;;;;;0.30;0.30;;;;;;;;;;4939156;28;20050;-89
2023/12/19 09:04:25;;;;;;;0.10;0.10;;;;;;;;;;4978572;28;20062;-91
2023/12/19 09:06:51;;;;;;;0.10;0.10;;;;;;;;;;4975237;28;20036;-91
2023/12/19 09:09:17;;;;;;;0.10;0.10;;;;;;;;;;4975460;28;20034;-91
2023/12/19 09:11:43;;;;;;;0.10;0.10;;;;;;;;;;4959672;28;20089;-91
2023/12/19 09:14:12;;;;;;;0.10;0.10;;;;;;;;;;4962680;28;20049;-93
2023/12/19 09:16:38;;;;;;;0.17;0.17;;;;;;;;;;4960513;28;20577;-92
2023/12/19 09:19:04;;;;;;;0.20;0.20;;;;;;;;;;4959986;28;20129;-92
2023/12/19 09:21:31;;;;;;;0.10;0.10;;;;;;;;;;4959852;28;20046;-92
2023/12/19 09:23:57;;;;;;;0.10;0.10;;;;;;;;;;4960467;28;20046;-92
2023/12/19 09:26:23;;;;;;;0.10;0.10;;;;;;;;;;4959002;28;20084;-92
2023/12/19 09:28:49;;;;;;;0.10;0.10;;;;;;;;;;4975671;28;20084;-92
2023/12/19 09:31:16;;;;;;;0.10;0.10;;;;;;;;;;4972449;28;20062;-92
2023/12/19 09:33:42;;;;;;;0.10;0.10;;;;;;;;;;4940526;28;20049;-92
2023/12/19 09:36:08;;;;;;;0.20;0.20;;;;;;;;;;4956745;28;20503;-92
2023/12/19 09:38:35;;;;;;;0.10;0.10;;;;;;;;;;4976471;28;20046;-96
2023/12/19 09:41:02;;;;;;;0.10;0.10;;;;;;;;;;4976167;28;20042;-91
2023/12/19 09:43:32;;;;;;;0.10;0.10;;;;;;;;;;4972077;28;20039;-92
2023/12/19 09:45:59;;;;;;;0.10;0.10;;;;;;;;;;4972561;28;20039;-92
2023/12/19 09:48:25;;;;;;;0.20;0.20;;;;;;;;;;4940960;28;20125;-92
2023/12/19 09:50:51;;;;;;;1.13;0.30;;;;;;;;;;4965629;28;20080;-92
2023/12/19 09:53:18;;;;;;;0.20;0.20;;;;;;;;;;4995508;28;20130;-92
2023/12/19 09:55:44;;;;;;;0.10;0.10;;;;;;;;;;4995215;28;20041;-91
2023/12/19 09:58:13;;;;;;;0.10;0.10;;;;;;;;;;4996024;28;20478;-96
2023/12/19 10:00:39;;;;;;;0.10;0.10;;;;;;;;;;4991672;28;20058;-93
2023/12/19 10:03:06;;;;;;;0.10;0.10;;;;;;;;;;4976598;28;20050;-93
2023/12/19 10:05:32;;;;;;;0.10;0.10;;;;;;;;;;4976420;28;20038;-93
2023/12/19 10:07:58;;;;;;;0.10;0.10;;;;;;;;;;4976270;28;20470;-93
2023/12/19 10:10:43;;;;;;;0.35;0.35;;;;;;;;;;4975482;28;20078;-92
2023/12/19 10:13:09;;;;;;;0.10;0.10;;;;;;;;;;4993655;28;20049;-93
2023/12/19 10:15:35;;;;;;;0.10;0.10;;;;;;;;;;4979148;28;20050;-93
2023/12/19 10:18:08;;;;;;;0.10;0.10;;;;;;;;;;4979787;28;20053;-93
2023/12/19 10:20:34;;;;;;;0.10;0.10;;;;;;;;;;4979541;28;20106;-93
2023/12/19 10:23:03;;;;;;;0.10;0.10;;;;;;;;;;4979460;28;20176;-95
2023/12/19 10:25:30;;;;;;;0.10;0.10;;;;;;;;;;4980308;28;20049;-95
2023/12/19 10:28:07;;;;;;;0.20;0.20;;;;;;;;;;4965988;28;20390;-95
2023/12/19 10:30:33;;;;;;;0.20;0.20;;;;;;;;;;4972962;28;20546;-90
2023/12/19 10:32:59;;;;;;;0.10;0.10;;;;;;;;;;4940317;29;20043;-93
2023/12/19 10:35:32;;;;;;;0.10;0.10;;;;;;;;;;4947108;28;20137;-92
2023/12/19 10:37:59;;;;;;;0.10;0.10;;;;;;;;;;4958747;28;20053;-91
2023/12/19 10:40:25;;;;;;;0.10;0.10;;;;;;;;;;4958870;28;20050;-91
2023/12/19 10:42:55;;;;;;;0.10;0.10;;;;;;;;;;4958671;28;20038;-92
2023/12/19 10:45:21;;;;;;;0.10;0.10;;;;;;;;;;4971312;28;20031;-96
2023/12/19 10:47:47;;;;;;;0.10;0.10;;;;;;;;;;4940147;29;20047;-91
2023/12/19 10:50:13;;;;;;;0.20;0.20;;;;;;;;;;4944020;28;20089;-91
2023/12/19 10:52:40;;;;;;;0.10;0.10;;;;;;;;;;4959199;28;20038;-91
2023/12/19 10:55:06;;;;;;;0.10;0.10;;;;;;;;;;4958842;28;20038;-91
2023/12/19 10:57:37;;;;;;;0.10;0.10;;;;;;;;;;4959321;28;20077;-91
2023/12/19 11:00:21;;;;;;;0.10;0.10;;;;;;;;;;4980250;28;20054;-91
2023/12/19 11:03:06;;;;;;;0.10;0.10;;;;;;;;;;4997381;28;20053;-91
2023/12/19 11:05:36;;;;;;;0.10;0.10;;;;;;;;;;4997457;28;20378;-91
2023/12/19 11:08:10;;;;;;;0.10;0.10;;;;;;;;;;4997627;28;20111;-91
2023/12/19 11:10:40;;;;;;;0.10;0.10;;;;;;;;;;4996614;28;20041;-91
2023/12/19 11:13:06;;;;;;;0.40;0.40;;;;;;;;;;4997198;28;20053;-88
2023/12/19 11:15:32;;;;;;;0.10;0.10;;;;;;;;;;4996887;28;20481;-91
2023/12/19 11:18:03;;;;;;;0.10;0.10;;;;;;;;;;4983273;28;20042;-93
2023/12/19 11:20:29;;;;;;;0.10;0.10;;;;;;;;;;4978696;28;20042;-91
2023/12/19 11:22:55;;;;;;;0.10;0.10;;;;;;;;;;4977259;28;20056;-91
2023/12/19 11:25:26;;;;;;;0.10;0.10;;;;;;;;;;4993151;28;20483;-94
2023/12/19 11:27:56;;;;;;;0.10;0.10;;;;;;;;;;4994459;28;20078;-92
2023/12/19 11:30:32;;;;;;;0.10;0.10;;;;;;;;;;4978127;28;20038;-91
2023/12/19 11:32:58;;;;;;;0.10;0.10;;;;;;;;;;4977472;28;20046;-91
2023/12/19 11:35:27;;;;;;;0.10;0.10;;;;;;;;;;4977285;28;20042;-91
2023/12/19 11:38:13;;;;;;;0.10;0.10;;;;;;;;;;4976164;28;20109;-92
2023/12/19 11:40:47;;;;;;;0.10;0.10;;;;;;;;;;4973733;28;20047;-93
2023/12/19 11:43:28;;;;;;;0.10;0.10;;;;;;;;;;4977361;28;20046;-92
2023/12/19 11:45:58;;;;;;;0.10;0.10;;;;;;;;;;4977899;28;20043;-92
2023/12/19 11:48:37;;;;;;;0.10;0.10;;;;;;;;;;4975927;28;20034;-92
2023/12/19 11:51:03;;;;;;;0.10;0.10;;;;;;;;;;4961313;28;20042;-92
2023/12/19 11:53:29;;;;;;;0.10;0.10;;;;;;;;;;4961030;28;20066;-91
2023/12/19 11:56:08;;;;;;;0.10;0.10;;;;;;;;;;4960890;28;20150;-92
2023/12/19 11:58:35;;;;;;;0.10;0.10;;;;;;;;;;4961757;28;20050;-92
2023/12/19 12:01:02;;;;;;;0.10;0.10;;;;;;;;;;4960635;28;20046;-92
2023/12/19 12:03:28;;;;;;;0.20;0.20;;;;;;;;;;4961682;28;20046;-94
2023/12/19 12:05:54;;;;;;;0.10;0.10;;;;;;;;;;4961775;28;20121;-95
2023/12/19 12:08:21;;;;;;;0.10;0.10;;;;;;;;;;4961495;28;20042;-95
2023/12/19 12:11:00;;;;;;;0.10;0.10;;;;;;;;;;4959472;28;20089;-95
2023/12/19 12:13:27;;;;;;;0.20;0.20;;;;;;;;;;4977276;28;20046;-96
2023/12/19 12:15:54;;;;;;;0.10;0.10;;;;;;;;;;4977462;28;20513;-94
2023/12/19 12:18:20;;;;;;;0.10;0.10;;;;;;;;;;4972724;28;20497;-95
2023/12/19 12:20:46;;;;;;;0.10;0.10;;;;;;;;;;4973772;28;20050;-96
2023/12/19 12:23:12;;;;;;;0.10;0.10;;;;;;;;;;4976165;28;20080;-95
2023/12/19 12:25:38;;;;;;;0.10;0.10;;;;;;;;;;4976952;28;20248;-96
2023/12/19 12:28:08;;;;;;;0.10;0.10;;;;;;;;;;4976400;28;20394;-95
2023/12/19 12:30:34;;;;;;;0.10;0.10;;;;;;;;;;4976199;28;20090;-95
2023/12/19 12:33:01;;;;;;;0.10;0.10;;;;;;;;;;4976526;28;20116;-94
2023/12/19 12:35:34;;;;;;;0.10;0.10;;;;;;;;;;4961126;28;20038;-94
2023/12/19 12:38:01;;;;;;;0.30;0.30;;;;;;;;;;4960649;28;20053;-93
2023/12/19 12:40:27;;;;;;;0.15;0.15;;;;;;;;;;4981939;28;20053;-94
2023/12/19 12:43:13;;;;;;;0.10;0.10;;;;;;;;;;4976682;28;20474;-92
2023/12/19 12:45:39;;;;;;;0.10;0.10;;;;;;;;;;4953899;28;20046;-93
2023/12/19 12:48:15;;;;;;;0.10;0.10;;;;;;;;;;4976734;28;20133;-93
2023/12/19 12:50:41;;;;;;;0.10;0.10;;;;;;;;;;4976679;28;20611;-94
2023/12/19 12:53:36;;;;;;;0.10;0.10;;;;;;;;;;4976475;28;20052;-91
2023/12/19 12:59:08;;;;;;;0.20;0.20;;;;;;;;;;4972899;28;20053;-95
2023/12/19 13:01:34;;;;;;;0.20;0.20;;;;;;;;;;4973763;28;20088;-93
2023/12/19 13:04:02;;;;;;;0.10;0.10;;;;;;;;;;4957463;28;20043;-93
2023/12/19 13:06:28;;;;;;;0.10;0.10;;;;;;;;;;4972706;28;20418;-92
2023/12/19 13:08:56;;;;;;;0.10;0.10;;;;;;;;;;4973220;28;20430;-93
2023/12/19 13:11:22;;;;;;;0.10;0.10;;;;;;;;;;4972541;28;20070;-91
2023/12/19 13:13:48;;;;;;;0.10;0.10;;;;;;;;;;4972622;28;20046;-92
2023/12/19 13:16:14;;;;;;;0.10;0.10;;;;;;;;;;4972525;28;20046;-92
2023/12/19 13:18:41;;;;;;;0.10;0.10;;;;;;;;;;4972465;28;20181;-93
2023/12/19 13:21:07;;;;;;;0.10;0.10;;;;;;;;;;4956625;28;20043;-92
2023/12/19 13:23:33;;;;;;;0.10;0.10;;;;;;;;;;4972875;28;20050;-92
2023/12/19 13:25:59;;;;;;;0.20;0.20;;;;;;;;;;4972323;28;20121;-91
2023/12/19 13:28:26;;;;;;;0.10;0.10;;;;;;;;;;4972702;28;20414;-92
2023/12/19 13:30:52;;;;;;;0.10;0.10;;;;;;;;;;4972517;28;20038;-91
2023/12/19 13:33:18;;;;;;;0.63;0.63;;;;;;;;;;4972356;28;20049;-90
2023/12/19 13:35:44;;;;;;;0.10;0.10;;;;;;;;;;4971957;28;20166;-90
2023/12/19 13:38:10;;;;;;;0.10;0.10;;;;;;;;;;4972118;28;20038;-89
2023/12/19 13:40:37;;;;;;;0.10;0.10;;;;;;;;;;4971727;28;20053;-90
2023/12/19 13:43:03;;;;;;;0.10;0.10;;;;;;;;;;4971817;28;20505;-90
2023/12/19 13:45:33;;;;;;;0.10;0.10;;;;;;;;;;4971785;28;20042;-90
2023/12/19 13:47:59;;;;;;;0.10;0.10;;;;;;;;;;4972744;28;20034;-89
2023/12/19 13:50:25;;;;;;;0.10;0.10;;;;;;;;;;4975618;28;20122;-90
2023/12/19 13:52:51;;;;;;;0.10;0.10;;;;;;;;;;4959805;28;20035;-91
2023/12/19 13:55:17;;;;;;;0.10;0.10;;;;;;;;;;4975531;28;20043;-92
2023/12/19 13:57:43;;;;;;;0.10;0.10;;;;;;;;;;4975522;28;20039;-90
2023/12/19 14:00:14;;;;;;;0.10;0.10;;;;;;;;;;4975114;28;20063;-90
2023/12/19 14:02:40;;;;;;;0.10;0.10;;;;;;;;;;4975085;28;20162;-90
2023/12/19 14:05:07;;;;;;;0.10;0.10;;;;;;;;;;4975397;28;20039;-91
2023/12/19 14:07:33;;;;;;;0.10;0.10;;;;;;;;;;4975313;28;20046;-88
2023/12/19 14:10:00;;;;;;;0.10;0.10;;;;;;;;;;4975067;28;20422;-90
2023/12/19 14:12:27;;;;;;;0.10;0.10;;;;;;;;;;4975325;28;20143;-90
2023/12/19 14:14:53;;;;;;;0.10;0.10;;;;;;;;;;4975343;28;20398;-89
2023/12/19 14:17:19;;;;;;;0.10;0.10;;;;;;;;;;4974899;28;20039;-91
2023/12/19 14:19:45;;;;;;;0.10;0.10;;;;;;;;;;4975076;28;20093;-90
2023/12/19 14:22:11;;;;;;;0.10;0.10;;;;;;;;;;4974762;28;20086;-90
2023/12/19 14:24:39;;;;;;;0.10;0.10;;;;;;;;;;4975285;28;20047;-90
2023/12/19 14:27:06;;;;;;;0.10;0.10;;;;;;;;;;4974701;28;20080;-89
2023/12/19 14:29:33;;;;;;;0.10;0.10;;;;;;;;;;4974639;28;20105;-90
2023/12/19 14:31:59;;;;;;;0.10;0.10;;;;;;;;;;4958961;28;20441;-89
2023/12/19 14:34:25;;;;;;;0.10;0.10;;;;;;;;;;4974971;28;20047;-90
2023/12/19 14:36:51;;;;;;;0.10;0.10;;;;;;;;;;4974452;28;20046;-90
2023/12/19 14:39:17;;;;;;;0.10;0.10;;;;;;;;;;4974712;28;20047;-90
2023/12/19 14:41:44;;;;;;;0.10;0.10;;;;;;;;;;4974336;28;20045;-89
2023/12/19 14:44:10;;;;;;;0.10;0.10;;;;;;;;;;4974389;28;20039;-90
2023/12/19 14:46:36;;;;;;;0.10;0.10;;;;;;;;;;4974361;28;20177;-91